A- A+ FrançaisEnglishEspañol中国

le plus proche LFBT Tarbes-Lourdes-PyrénéesLFMO Orange-CaritatLFOH Le-Havre-OctevilleLFAQ Albert-Bray

manche à air

La météo aéronautique pour les pilotes, la préparation du vol avec les METAR (METeorological Aerodrome Report, message d'observation des conditions météorologiques pour l'aviation) et Les TAF (Terminal Aerodrome Forecast : message de prévision à court terme des conditions météorologiques pour l'aviation). Et les autres ressources comme les VAC (Visual Approch Chart) et les NOTAM (Notice To Airman) pour préprer les vols.

Aéroport Takoradi (Ghana) / OACI DGTK/ IATA TKD

L'altitude de l'aéroport Takoradi est de 6 m=20 ft. Il est situé à proximité de Sekondi-Takoradi (Ghana). La météo générale à 5 jours est disponible pour Takoradi situé à 2.5 km.

METAR de l'aéroport Takoradi - DGTK

DGTK 271400Z 23006KT 4500 -TSRA BKN010 FEW030CB 26/25 Q1012 NOSIG

Décodage du METAR de l'aéroport Takoradi (GH)

METAR émis par DGTK le vendredi 27 septembre 2019 à 14:00 heure TU. Attention ce METAR est obsolète car il a été émis il y a 14 heure et 30 minutes.

La visibilité est de 4.5 km=2.8 sm.

La température est de 26°C=79 °F et le point rosée est de 25°C=77 °F . Ce qui correspond à 94% d'humidité relative.

Le QNH est de 1012 hPa=29.88 inHg

Vent de 6 kt=11 km/h, orienté à 230°.

Nuages : Couverture nuageuse fragmentée à 1000 ft=300 mètres. Quelques nuages à 3000 ft=910 mètres.

-TSRA

Aucun changement significatif dans les deux heures à venir

TAF de l'aéroport Takoradi - DGTK

DGTK 271130Z 2712/2818 23005G15KT 9999 SCT014 PROB30 TEMPO 2712/2716 27010KT 6000 RA BKN010 TEMPO 2805/2807 00000KT 5000 TSRA BKN010 FEW030CB

DGTK 271130Z 2712/2818 23005G15KT 9999 nuages épars à 014 probabilité de 30% d'avoir temporairement 2712/2716 27010KT 6000 pluie couverture nuageuse fragmentée à 010 temporairement 2805/2807 00000KT 5000 orage RA couverture nuageuse fragmentée à 010 quelques nuages à 030CB

Aéroport à proximité de Takoradi

Météo générale à 5 jours à Takoradi (2.5 km)DIAO Aéroport Aboisso (173 km)DGAA Aéroport Accra Kotoka Intl (195 km)DGSI Aéroport Kumasi (203 km)DIAP Aéroport Abidjan Felix Houphouet Boigny (242 km)DIAU Aéroport Abengourou (276 km)DGSN Aéroport Sunyani (281 km)

Vue aérienne de l'aéroport Takoradi

NOTAM de l'aéroport Takoradi

Les NOTAM sont fournis sans aucune garantie de leur actualité. Le pilote est le seul responsable de la vérification de sa validité avant de l'utiliser opérationnellement pour préparer un vol ou l'utiliser lors de sa navigation.

Pas de NOTAM

Sources des données